sensor_id;sensor_type;location;lat;lon;timestamp;temperature;humidity
72591;SHT31;60625;51.212;5.952;2022-07-29T00:01:20;20.41;49.14
72591;SHT31;60625;51.212;5.952;2022-07-29T00:06:21;20.41;48.90
72591;SHT31;60625;51.212;5.952;2022-07-29T00:11:21;20.40;48.70
72591;SHT31;60625;51.212;5.952;2022-07-29T00:16:22;20.38;49.10
72591;SHT31;60625;51.212;5.952;2022-07-29T00:21:23;20.37;49.26
72591;SHT31;60625;51.212;5.952;2022-07-29T00:26:23;20.32;49.03
72591;SHT31;60625;51.212;5.952;2022-07-29T00:31:24;20.27;48.96
72591;SHT31;60625;51.212;5.952;2022-07-29T00:36:25;20.24;49.09
72591;SHT31;60625;51.212;5.952;2022-07-29T00:41:26;20.21;49.12
72591;SHT31;60625;51.212;5.952;2022-07-29T00:46:26;20.18;49.24
72591;SHT31;60625;51.212;5.952;2022-07-29T00:51:27;20.11;50.42
72591;SHT31;60625;51.212;5.952;2022-07-29T00:56:29;19.86;52.88
72591;SHT31;60625;51.212;5.952;2022-07-29T01:01:31;19.63;54.56
72591;SHT31;60625;51.212;5.952;2022-07-29T01:06:32;19.40;56.79
72591;SHT31;60625;51.212;5.952;2022-07-29T01:11:33;19.06;60.92
72591;SHT31;60625;51.212;5.952;2022-07-29T01:16:51;18.73;62.83
72591;SHT31;60625;51.212;5.952;2022-07-29T01:22:05;18.34;64.35
72591;SHT31;60625;51.212;5.952;2022-07-29T01:33:06;17.84;65.87
72591;SHT31;60625;51.212;5.952;2022-07-29T01:38:16;17.71;66.13
72591;SHT31;60625;51.212;5.952;2022-07-29T01:43:33;17.64;67.06
72591;SHT31;60625;51.212;5.952;2022-07-29T01:48:56;17.53;67.89
72591;SHT31;60625;51.212;5.952;2022-07-29T01:54:08;17.52;67.60
72591;SHT31;60625;51.212;5.952;2022-07-29T01:59:16;17.65;67.24
72591;SHT31;60625;51.212;5.952;2022-07-29T02:04:19;17.74;66.40
72591;SHT31;60625;51.212;5.952;2022-07-29T02:09:21;17.73;67.67
72591;SHT31;60625;51.212;5.952;2022-07-29T02:14:23;17.67;68.24
72591;SHT31;60625;51.212;5.952;2022-07-29T02:19:27;17.60;68.94
72591;SHT31;60625;51.212;5.952;2022-07-29T02:24:32;17.52;69.71
72591;SHT31;60625;51.212;5.952;2022-07-29T02:29:36;17.51;71.10
72591;SHT31;60625;51.212;5.952;2022-07-29T02:34:38;17.45;71.68
72591;SHT31;60625;51.212;5.952;2022-07-29T02:39:40;17.36;72.41
72591;SHT31;60625;51.212;5.952;2022-07-29T02:44:44;17.32;71.94
72591;SHT31;60625;51.212;5.952;2022-07-29T02:54:56;17.31;72.08
72591;SHT31;60625;51.212;5.952;2022-07-29T03:00:06;17.33;72.29
72591;SHT31;60625;51.212;5.952;2022-07-29T03:05:11;17.35;72.45
72591;SHT31;60625;51.212;5.952;2022-07-29T03:10:21;17.43;72.21
72591;SHT31;60625;51.212;5.952;2022-07-29T03:15:22;17.56;71.82
72591;SHT31;60625;51.212;5.952;2022-07-29T03:20:23;17.63;72.38
72591;SHT31;60625;51.212;5.952;2022-07-29T03:25:24;17.60;72.39
72591;SHT31;60625;51.212;5.952;2022-07-29T03:30:27;17.63;71.93
72591;SHT31;60625;51.212;5.952;2022-07-29T03:35:30;17.56;71.92
72591;SHT31;60625;51.212;5.952;2022-07-29T03:40:33;17.44;72.50
72591;SHT31;60625;51.212;5.952;2022-07-29T03:45:42;17.46;72.15
72591;SHT31;60625;51.212;5.952;2022-07-29T03:50:47;17.51;72.33
72591;SHT31;60625;51.212;5.952;2022-07-29T03:55:50;17.51;73.35
72591;SHT31;60625;51.212;5.952;2022-07-29T04:00:55;17.51;72.75
72591;SHT31;60625;51.212;5.952;2022-07-29T04:06:00;17.50;72.65
72591;SHT31;60625;51.212;5.952;2022-07-29T04:11:05;17.52;72.74
72591;SHT31;60625;51.212;5.952;2022-07-29T04:16:06;17.56;73.43
72591;SHT31;60625;51.212;5.952;2022-07-29T04:21:06;17.58;73.88
72591;SHT31;60625;51.212;5.952;2022-07-29T04:26:07;17.61;74.08
72591;SHT31;60625;51.212;5.952;2022-07-29T04:31:11;17.54;74.19
72591;SHT31;60625;51.212;5.952;2022-07-29T04:36:12;17.42;75.00
72591;SHT31;60625;51.212;5.952;2022-07-29T04:41:13;17.47;74.74
72591;SHT31;60625;51.212;5.952;2022-07-29T04:46:13;17.49;74.50
72591;SHT31;60625;51.212;5.952;2022-07-29T04:51:15;17.47;74.47
72591;SHT31;60625;51.212;5.952;2022-07-29T04:56:15;17.37;74.42
72591;SHT31;60625;51.212;5.952;2022-07-29T05:01:16;17.38;74.69
72591;SHT31;60625;51.212;5.952;2022-07-29T05:06:16;17.38;75.11
72591;SHT31;60625;51.212;5.952;2022-07-29T05:11:17;17.33;75.18
72591;SHT31;60625;51.212;5.952;2022-07-29T05:16:17;17.29;75.48
72591;SHT31;60625;51.212;5.952;2022-07-29T05:21:18;17.27;75.82
72591;SHT31;60625;51.212;5.952;2022-07-29T05:26:18;17.22;75.90
72591;SHT31;60625;51.212;5.952;2022-07-29T05:31:19;17.25;75.79
72591;SHT31;60625;51.212;5.952;2022-07-29T05:36:19;17.42;75.70
72591;SHT31;60625;51.212;5.952;2022-07-29T05:41:20;17.49;75.06
72591;SHT31;60625;51.212;5.952;2022-07-29T05:46:21;17.40;74.79
72591;SHT31;60625;51.212;5.952;2022-07-29T05:51:21;17.38;75.17
72591;SHT31;60625;51.212;5.952;2022-07-29T05:56:22;17.47;75.04
72591;SHT31;60625;51.212;5.952;2022-07-29T06:01:23;17.58;74.75
72591;SHT31;60625;51.212;5.952;2022-07-29T06:06:24;17.63;74.76
72591;SHT31;60625;51.212;5.952;2022-07-29T06:11:24;17.49;74.60
72591;SHT31;60625;51.212;5.952;2022-07-29T06:16:25;17.37;74.92
72591;SHT31;60625;51.212;5.952;2022-07-29T06:21:26;17.31;75.06
72591;SHT31;60625;51.212;5.952;2022-07-29T06:26:26;17.29;74.74
72591;SHT31;60625;51.212;5.952;2022-07-29T06:31:27;17.39;74.99
72591;SHT31;60625;51.212;5.952;2022-07-29T06:36:27;17.52;74.84
72591;SHT31;60625;51.212;5.952;2022-07-29T06:41:28;17.59;74.68
72591;SHT31;60625;51.212;5.952;2022-07-29T06:46:28;17.66;73.96
72591;SHT31;60625;51.212;5.952;2022-07-29T06:51:32;17.90;73.64
72591;SHT31;60625;51.212;5.952;2022-07-29T06:56:34;18.07;73.25
72591;SHT31;60625;51.212;5.952;2022-07-29T07:01:38;18.06;73.50
72591;SHT31;60625;51.212;5.952;2022-07-29T07:06:41;18.13;73.74
72591;SHT31;60625;51.212;5.952;2022-07-29T07:11:42;18.14;74.07
72591;SHT31;60625;51.212;5.952;2022-07-29T07:16:42;18.12;74.29
72591;SHT31;60625;51.212;5.952;2022-07-29T07:21:43;18.09;74.39
72591;SHT31;60625;51.212;5.952;2022-07-29T07:26:43;18.14;73.86
72591;SHT31;60625;51.212;5.952;2022-07-29T07:31:44;18.15;73.16
72591;SHT31;60625;51.212;5.952;2022-07-29T07:36:45;18.19;74.02
72591;SHT31;60625;51.212;5.952;2022-07-29T07:41:45;18.16;74.33
72591;SHT31;60625;51.212;5.952;2022-07-29T07:46:46;18.28;74.14
72591;SHT31;60625;51.212;5.952;2022-07-29T07:51:46;18.34;73.83
72591;SHT31;60625;51.212;5.952;2022-07-29T07:56:47;18.25;73.81
72591;SHT31;60625;51.212;5.952;2022-07-29T08:01:51;18.22;73.90
72591;SHT31;60625;51.212;5.952;2022-07-29T08:06:51;18.32;73.97
72591;SHT31;60625;51.212;5.952;2022-07-29T08:11:54;18.37;73.41
72591;SHT31;60625;51.212;5.952;2022-07-29T08:16:56;18.70;72.64
72591;SHT31;60625;51.212;5.952;2022-07-29T08:21:56;19.18;70.96
72591;SHT31;60625;51.212;5.952;2022-07-29T08:26:57;19.46;70.17
72591;SHT31;60625;51.212;5.952;2022-07-29T08:31:57;19.83;70.00
72591;SHT31;60625;51.212;5.952;2022-07-29T08:36:58;20.23;68.61
72591;SHT31;60625;51.212;5.952;2022-07-29T08:41:58;20.16;68.18
72591;SHT31;60625;51.212;5.952;2022-07-29T08:46:59;20.24;68.51
72591;SHT31;60625;51.212;5.952;2022-07-29T08:52:00;20.37;68.17
72591;SHT31;60625;51.212;5.952;2022-07-29T08:57:00;20.87;67.35
72591;SHT31;60625;51.212;5.952;2022-07-29T09:02:02;21.29;65.82
72591;SHT31;60625;51.212;5.952;2022-07-29T09:07:04;21.34;64.68
72591;SHT31;60625;51.212;5.952;2022-07-29T09:12:06;21.30;64.79
72591;SHT31;60625;51.212;5.952;2022-07-29T09:17:08;21.38;63.81
72591;SHT31;60625;51.212;5.952;2022-07-29T09:22:08;21.23;63.60
72591;SHT31;60625;51.212;5.952;2022-07-29T09:27:21;21.40;63.26
72591;SHT31;60625;51.212;5.952;2022-07-29T09:32:26;21.67;62.69
72591;SHT31;60625;51.212;5.952;2022-07-29T09:37:28;21.93;61.43
72591;SHT31;60625;51.212;5.952;2022-07-29T09:42:29;22.05;61.34
72591;SHT31;60625;51.212;5.952;2022-07-29T09:47:42;22.29;60.92
72591;SHT31;60625;51.212;5.952;2022-07-29T09:52:48;22.46;60.28
72591;SHT31;60625;51.212;5.952;2022-07-29T09:57:51;22.75;59.24
72591;SHT31;60625;51.212;5.952;2022-07-29T10:02:51;23.09;58.88
72591;SHT31;60625;51.212;5.952;2022-07-29T10:08:01;23.34;57.90
72591;SHT31;60625;51.212;5.952;2022-07-29T10:13:03;23.55;58.22
72591;SHT31;60625;51.212;5.952;2022-07-29T10:18:08;23.73;57.06
72591;SHT31;60625;51.212;5.952;2022-07-29T10:23:10;23.76;56.26
72591;SHT31;60625;51.212;5.952;2022-07-29T10:28:10;23.82;56.67
72591;SHT31;60625;51.212;5.952;2022-07-29T10:43:48;23.99;56.67
72591;SHT31;60625;51.212;5.952;2022-07-29T10:59:33;24.15;55.62
72591;SHT31;60625;51.212;5.952;2022-07-29T11:09:43;24.37;57.12
72591;SHT31;60625;51.212;5.952;2022-07-29T11:19:52;24.34;56.67
72591;SHT31;60625;51.212;5.952;2022-07-29T11:25:30;24.43;56.44
72591;SHT31;60625;51.212;5.952;2022-07-29T11:51:52;25.33;54.53
72591;SHT31;60625;51.212;5.952;2022-07-29T11:56:57;25.38;54.01
72591;SHT31;60625;51.212;5.952;2022-07-29T12:01:59;25.47;54.24
72591;SHT31;60625;51.212;5.952;2022-07-29T12:07:00;25.64;53.05
72591;SHT31;60625;51.212;5.952;2022-07-29T12:12:00;25.68;52.67
72591;SHT31;60625;51.212;5.952;2022-07-29T12:17:01;25.78;52.44
72591;SHT31;60625;51.212;5.952;2022-07-29T12:22:01;25.84;51.36
72591;SHT31;60625;51.212;5.952;2022-07-29T12:27:02;25.88;51.06
72591;SHT31;60625;51.212;5.952;2022-07-29T12:32:03;25.98;51.08
72591;SHT31;60625;51.212;5.952;2022-07-29T12:37:06;26.05;51.10
72591;SHT31;60625;51.212;5.952;2022-07-29T12:42:10;26.18;50.74
72591;SHT31;60625;51.212;5.952;2022-07-29T12:47:12;26.53;50.25
72591;SHT31;60625;51.212;5.952;2022-07-29T12:52:23;26.58;49.71
72591;SHT31;60625;51.212;5.952;2022-07-29T12:57:30;26.59;49.20
72591;SHT31;60625;51.212;5.952;2022-07-29T13:02:32;26.51;49.10
72591;SHT31;60625;51.212;5.952;2022-07-29T13:07:33;26.33;49.92
72591;SHT31;60625;51.212;5.952;2022-07-29T13:12:38;26.12;49.38
72591;SHT31;60625;51.212;5.952;2022-07-29T13:17:39;25.83;50.33
72591;SHT31;60625;51.212;5.952;2022-07-29T13:22:47;25.92;50.30
72591;SHT31;60625;51.212;5.952;2022-07-29T13:27:48;26.18;49.33
72591;SHT31;60625;51.212;5.952;2022-07-29T13:32:49;26.21;49.09
72591;SHT31;60625;51.212;5.952;2022-07-29T13:37:51;26.10;49.75
72591;SHT31;60625;51.212;5.952;2022-07-29T13:42:52;26.17;49.82
72591;SHT31;60625;51.212;5.952;2022-07-29T13:47:53;26.35;49.07
72591;SHT31;60625;51.212;5.952;2022-07-29T13:52:53;26.68;47.71
72591;SHT31;60625;51.212;5.952;2022-07-29T13:57:54;26.83;47.39
72591;SHT31;60625;51.212;5.952;2022-07-29T14:02:54;26.68;48.48
72591;SHT31;60625;51.212;5.952;2022-07-29T14:07:55;26.80;48.11
72591;SHT31;60625;51.212;5.952;2022-07-29T14:12:55;27.13;47.33
72591;SHT31;60625;51.212;5.952;2022-07-29T14:17:56;27.49;46.65
72591;SHT31;60625;51.212;5.952;2022-07-29T14:22:56;27.55;45.60
72591;SHT31;60625;51.212;5.952;2022-07-29T14:27:57;27.68;45.40
72591;SHT31;60625;51.212;5.952;2022-07-29T14:32:57;27.78;44.46
72591;SHT31;60625;51.212;5.952;2022-07-29T14:37:58;28.03;42.20
72591;SHT31;60625;51.212;5.952;2022-07-29T14:42:58;28.26;42.10
72591;SHT31;60625;51.212;5.952;2022-07-29T14:47:59;28.31;41.94
72591;SHT31;60625;51.212;5.952;2022-07-29T14:53:00;28.43;42.26
72591;SHT31;60625;51.212;5.952;2022-07-29T14:58:01;28.47;42.22
72591;SHT31;60625;51.212;5.952;2022-07-29T15:03:01;28.54;41.61
72591;SHT31;60625;51.212;5.952;2022-07-29T15:08:02;28.63;41.22
72591;SHT31;60625;51.212;5.952;2022-07-29T15:13:03;28.65;41.27
72591;SHT31;60625;51.212;5.952;2022-07-29T15:18:03;28.65;41.21
72591;SHT31;60625;51.212;5.952;2022-07-29T15:23:04;28.28;42.60
72591;SHT31;60625;51.212;5.952;2022-07-29T15:28:05;28.20;42.68
72591;SHT31;60625;51.212;5.952;2022-07-29T15:33:08;28.26;42.22
72591;SHT31;60625;51.212;5.952;2022-07-29T15:38:09;28.12;41.77
72591;SHT31;60625;51.212;5.952;2022-07-29T15:43:10;27.89;41.73
72591;SHT31;60625;51.212;5.952;2022-07-29T15:48:10;27.72;42.12
72591;SHT31;60625;51.212;5.952;2022-07-29T15:53:11;27.53;41.57
72591;SHT31;60625;51.212;5.952;2022-07-29T15:58:11;27.42;41.71
72591;SHT31;60625;51.212;5.952;2022-07-29T16:03:12;27.41;41.72
72591;SHT31;60625;51.212;5.952;2022-07-29T16:08:13;27.57;42.17
72591;SHT31;60625;51.212;5.952;2022-07-29T16:13:13;27.53;42.40
72591;SHT31;60625;51.212;5.952;2022-07-29T16:18:14;27.44;41.91
72591;SHT31;60625;51.212;5.952;2022-07-29T16:23:14;27.37;42.31
72591;SHT31;60625;51.212;5.952;2022-07-29T16:28:15;27.39;42.06
72591;SHT31;60625;51.212;5.952;2022-07-29T16:33:16;27.44;41.62
72591;SHT31;60625;51.212;5.952;2022-07-29T16:38:17;27.38;41.83
72591;SHT31;60625;51.212;5.952;2022-07-29T16:43:17;27.26;41.71
72591;SHT31;60625;51.212;5.952;2022-07-29T16:48:20;27.11;41.65
72591;SHT31;60625;51.212;5.952;2022-07-29T16:53:21;27.07;42.04
72591;SHT31;60625;51.212;5.952;2022-07-29T16:58:21;27.08;42.10
72591;SHT31;60625;51.212;5.952;2022-07-29T17:03:24;27.00;41.59
72591;SHT31;60625;51.212;5.952;2022-07-29T17:08:27;26.87;41.56
72591;SHT31;60625;51.212;5.952;2022-07-29T17:13:27;26.68;41.60
72591;SHT31;60625;51.212;5.952;2022-07-29T17:18:28;26.50;42.74
72591;SHT31;60625;51.212;5.952;2022-07-29T17:23:28;26.49;43.67
72591;SHT31;60625;51.212;5.952;2022-07-29T17:28:29;26.48;43.50
72591;SHT31;60625;51.212;5.952;2022-07-29T17:33:29;26.44;43.90
72591;SHT31;60625;51.212;5.952;2022-07-29T17:38:30;26.43;43.85
72591;SHT31;60625;51.212;5.952;2022-07-29T17:43:30;26.39;43.57
72591;SHT31;60625;51.212;5.952;2022-07-29T17:48:31;26.27;44.06
72591;SHT31;60625;51.212;5.952;2022-07-29T17:53:31;26.13;44.47
72591;SHT31;60625;51.212;5.952;2022-07-29T17:58:32;26.02;45.06
72591;SHT31;60625;51.212;5.952;2022-07-29T18:03:33;25.98;44.79
72591;SHT31;60625;51.212;5.952;2022-07-29T18:08:34;25.94;44.21
72591;SHT31;60625;51.212;5.952;2022-07-29T18:13:38;25.91;43.83
72591;SHT31;60625;51.212;5.952;2022-07-29T18:18:39;25.94;44.13
72591;SHT31;60625;51.212;5.952;2022-07-29T18:23:39;25.92;43.88
72591;SHT31;60625;51.212;5.952;2022-07-29T18:28:41;25.91;44.31
72591;SHT31;60625;51.212;5.952;2022-07-29T18:33:43;25.84;44.24
72591;SHT31;60625;51.212;5.952;2022-07-29T18:38:47;25.74;44.63
72591;SHT31;60625;51.212;5.952;2022-07-29T18:43:47;25.64;44.85
72591;SHT31;60625;51.212;5.952;2022-07-29T18:48:48;25.53;45.26
72591;SHT31;60625;51.212;5.952;2022-07-29T18:53:48;25.39;45.30
72591;SHT31;60625;51.212;5.952;2022-07-29T18:58:51;25.22;45.61
72591;SHT31;60625;51.212;5.952;2022-07-29T19:03:51;25.07;46.13
72591;SHT31;60625;51.212;5.952;2022-07-29T19:08:52;24.93;46.42
72591;SHT31;60625;51.212;5.952;2022-07-29T19:13:55;24.79;46.92
72591;SHT31;60625;51.212;5.952;2022-07-29T19:18:56;24.66;47.04
72591;SHT31;60625;51.212;5.952;2022-07-29T19:23:57;24.54;47.51
72591;SHT31;60625;51.212;5.952;2022-07-29T19:28:57;24.40;47.51
72591;SHT31;60625;51.212;5.952;2022-07-29T19:33:58;24.21;47.63
72591;SHT31;60625;51.212;5.952;2022-07-29T19:38:59;24.01;48.07
72591;SHT31;60625;51.212;5.952;2022-07-29T19:43:59;23.84;48.32
72591;SHT31;60625;51.212;5.952;2022-07-29T19:49:01;23.70;48.39
72591;SHT31;60625;51.212;5.952;2022-07-29T19:54:06;23.57;48.72
72591;SHT31;60625;51.212;5.952;2022-07-29T19:59:08;23.43;48.28
72591;SHT31;60625;51.212;5.952;2022-07-29T20:04:08;23.19;48.31
72591;SHT31;60625;51.212;5.952;2022-07-29T20:09:09;23.04;48.56
72591;SHT31;60625;51.212;5.952;2022-07-29T20:14:14;22.88;48.95
72591;SHT31;60625;51.212;5.952;2022-07-29T20:19:15;22.73;49.24
72591;SHT31;60625;51.212;5.952;2022-07-29T20:24:19;22.55;49.40
72591;SHT31;60625;51.212;5.952;2022-07-29T20:29:20;22.42;49.70
72591;SHT31;60625;51.212;5.952;2022-07-29T20:34:24;22.29;49.99
72591;SHT31;60625;51.212;5.952;2022-07-29T20:39:27;22.18;50.38
72591;SHT31;60625;51.212;5.952;2022-07-29T20:44:28;22.05;50.59
72591;SHT31;60625;51.212;5.952;2022-07-29T20:49:29;21.90;51.01
72591;SHT31;60625;51.212;5.952;2022-07-29T20:54:29;21.79;51.34
72591;SHT31;60625;51.212;5.952;2022-07-29T20:59:32;21.64;51.74
72591;SHT31;60625;51.212;5.952;2022-07-29T21:04:33;21.54;52.19
72591;SHT31;60625;51.212;5.952;2022-07-29T21:09:36;21.43;52.63
72591;SHT31;60625;51.212;5.952;2022-07-29T21:14:36;21.29;53.15
72591;SHT31;60625;51.212;5.952;2022-07-29T21:19:39;21.20;53.51
72591;SHT31;60625;51.212;5.952;2022-07-29T21:24:40;21.13;53.73
72591;SHT31;60625;51.212;5.952;2022-07-29T21:29:41;21.03;54.04
72591;SHT31;60625;51.212;5.952;2022-07-29T21:34:41;20.95;54.34
72591;SHT31;60625;51.212;5.952;2022-07-29T21:39:42;20.88;54.60
72591;SHT31;60625;51.212;5.952;2022-07-29T21:44:42;20.80;54.93
72591;SHT31;60625;51.212;5.952;2022-07-29T21:49:43;20.78;55.06
72591;SHT31;60625;51.212;5.952;2022-07-29T21:54:45;20.77;55.33
72591;SHT31;60625;51.212;5.952;2022-07-29T21:59:45;20.78;55.57
72591;SHT31;60625;51.212;5.952;2022-07-29T22:04:46;20.71;55.76
72591;SHT31;60625;51.212;5.952;2022-07-29T22:09:46;20.62;56.08
72591;SHT31;60625;51.212;5.952;2022-07-29T22:14:47;20.54;56.35
72591;SHT31;60625;51.212;5.952;2022-07-29T22:19:47;20.44;56.71
72591;SHT31;60625;51.212;5.952;2022-07-29T22:24:48;20.33;57.08
72591;SHT31;60625;51.212;5.952;2022-07-29T22:29:48;20.26;57.42
72591;SHT31;60625;51.212;5.952;2022-07-29T22:34:49;20.19;57.60
72591;SHT31;60625;51.212;5.952;2022-07-29T22:39:49;20.15;57.85
72591;SHT31;60625;51.212;5.952;2022-07-29T22:44:50;20.10;58.10
72591;SHT31;60625;51.212;5.952;2022-07-29T22:49:50;20.07;58.11
72591;SHT31;60625;51.212;5.952;2022-07-29T22:54:51;20.05;58.41
72591;SHT31;60625;51.212;5.952;2022-07-29T22:59:52;20.05;58.56
72591;SHT31;60625;51.212;5.952;2022-07-29T23:04:52;19.98;58.88
72591;SHT31;60625;51.212;5.952;2022-07-29T23:09:52;19.88;59.13
72591;SHT31;60625;51.212;5.952;2022-07-29T23:14:53;19.84;59.33
72591;SHT31;60625;51.212;5.952;2022-07-29T23:19:53;19.74;59.51
72591;SHT31;60625;51.212;5.952;2022-07-29T23:24:54;19.67;59.69
72591;SHT31;60625;51.212;5.952;2022-07-29T23:29:55;19.63;59.82
72591;SHT31;60625;51.212;5.952;2022-07-29T23:34:55;19.58;59.99
72591;SHT31;60625;51.212;5.952;2022-07-29T23:39:55;19.49;60.31
72591;SHT31;60625;51.212;5.952;2022-07-29T23:44:56;19.37;60.58
72591;SHT31;60625;51.212;5.952;2022-07-29T23:49:56;19.27;60.77
72591;SHT31;60625;51.212;5.952;2022-07-29T23:54:57;19.18;61.04
72591;SHT31;60625;51.212;5.952;2022-07-29T23:59:58;19.09;61.40
